sensor_id;sensor_type;location;lat;lon;timestamp;P1;durP1;ratioP1;P2;durP2;ratioP2
54875;SDS011;40764;48.472;8.166;2023-11-21T00:01:24;7.57;;;2.58;;
54875;SDS011;40764;48.472;8.166;2023-11-21T00:07:24;7.75;;;2.63;;
54875;SDS011;40764;48.472;8.166;2023-11-21T00:13:24;11.03;;;2.77;;
54875;SDS011;40764;48.472;8.166;2023-11-21T00:19:25;8.65;;;2.78;;
54875;SDS011;40764;48.472;8.166;2023-11-21T00:25:25;7.45;;;2.72;;
54875;SDS011;40764;48.472;8.166;2023-11-21T00:31:25;7.60;;;2.42;;
54875;SDS011;40764;48.472;8.166;2023-11-21T00:37:25;4.68;;;4.05;;
54875;SDS011;40764;48.472;8.166;2023-11-21T00:43:26;12.57;;;4.63;;
54875;SDS011;40764;48.472;8.166;2023-11-21T00:49:26;10.40;;;2.80;;
54875;SDS011;40764;48.472;8.166;2023-11-21T00:55:28;7.50;;;2.80;;
54875;SDS011;40764;48.472;8.166;2023-11-21T01:07:30;7.47;;;4.05;;
54875;SDS011;40764;48.472;8.166;2023-11-21T01:13:30;10.90;;;2.90;;
54875;SDS011;40764;48.472;8.166;2023-11-21T01:19:30;6.47;;;2.57;;
54875;SDS011;40764;48.472;8.166;2023-11-21T01:25:30;5.95;;;2.58;;
54875;SDS011;40764;48.472;8.166;2023-11-21T01:31:31;7.68;;;2.42;;
54875;SDS011;40764;48.472;8.166;2023-11-21T01:37:31;8.13;;;2.85;;
54875;SDS011;40764;48.472;8.166;2023-11-21T01:43:32;8.63;;;2.73;;
54875;SDS011;40764;48.472;8.166;2023-11-21T01:49:33;2.22;;;1.58;;
54875;SDS011;40764;48.472;8.166;2023-11-21T01:55:33;8.23;;;2.47;;
54875;SDS011;40764;48.472;8.166;2023-11-21T02:01:34;6.80;;;1.90;;
54875;SDS011;40764;48.472;8.166;2023-11-21T02:07:34;9.45;;;2.20;;
54875;SDS011;40764;48.472;8.166;2023-11-21T02:13:35;35.10;;;9.23;;
54875;SDS011;40764;48.472;8.166;2023-11-21T02:19:35;15.63;;;5.15;;
54875;SDS011;40764;48.472;8.166;2023-11-21T02:25:35;15.57;;;3.00;;
54875;SDS011;40764;48.472;8.166;2023-11-21T02:31:37;11.57;;;2.40;;
54875;SDS011;40764;48.472;8.166;2023-11-21T02:37:45;8.88;;;2.13;;
54875;SDS011;40764;48.472;8.166;2023-11-21T02:43:45;5.60;;;2.25;;
54875;SDS011;40764;48.472;8.166;2023-11-21T02:49:46;10.45;;;2.35;;
54875;SDS011;40764;48.472;8.166;2023-11-21T02:55:46;11.20;;;2.75;;
54875;SDS011;40764;48.472;8.166;2023-11-21T03:01:46;3.15;;;2.30;;
54875;SDS011;40764;48.472;8.166;2023-11-21T03:07:47;3.53;;;1.73;;
54875;SDS011;40764;48.472;8.166;2023-11-21T03:13:47;4.90;;;1.90;;
54875;SDS011;40764;48.472;8.166;2023-11-21T03:19:47;8.38;;;2.35;;
54875;SDS011;40764;48.472;8.166;2023-11-21T03:25:47;6.50;;;1.65;;
54875;SDS011;40764;48.472;8.166;2023-11-21T03:31:48;4.13;;;1.35;;
54875;SDS011;40764;48.472;8.166;2023-11-21T03:37:48;5.05;;;1.63;;
54875;SDS011;40764;48.472;8.166;2023-11-21T03:43:48;11.88;;;3.45;;
54875;SDS011;40764;48.472;8.166;2023-11-21T03:49:49;7.13;;;2.47;;
54875;SDS011;40764;48.472;8.166;2023-11-21T03:55:49;11.95;;;3.28;;
54875;SDS011;40764;48.472;8.166;2023-11-21T04:01:50;7.10;;;3.23;;
54875;SDS011;40764;48.472;8.166;2023-11-21T04:07:50;8.80;;;6.13;;
54875;SDS011;40764;48.472;8.166;2023-11-21T04:13:51;2.97;;;2.27;;
54875;SDS011;40764;48.472;8.166;2023-11-21T04:19:51;2.55;;;2.10;;
54875;SDS011;40764;48.472;8.166;2023-11-21T04:25:51;5.93;;;1.80;;
54875;SDS011;40764;48.472;8.166;2023-11-21T04:31:54;6.38;;;2.13;;
54875;SDS011;40764;48.472;8.166;2023-11-21T04:37:54;4.55;;;2.88;;
54875;SDS011;40764;48.472;8.166;2023-11-21T04:43:54;6.18;;;1.98;;
54875;SDS011;40764;48.472;8.166;2023-11-21T04:49:55;8.98;;;2.60;;
54875;SDS011;40764;48.472;8.166;2023-11-21T04:55:55;14.70;;;3.00;;
54875;SDS011;40764;48.472;8.166;2023-11-21T05:01:55;5.15;;;3.15;;
54875;SDS011;40764;48.472;8.166;2023-11-21T05:07:55;3.75;;;3.28;;
54875;SDS011;40764;48.472;8.166;2023-11-21T05:13:56;7.53;;;3.45;;
54875;SDS011;40764;48.472;8.166;2023-11-21T05:19:58;5.93;;;2.33;;
54875;SDS011;40764;48.472;8.166;2023-11-21T05:25:58;5.60;;;2.50;;
54875;SDS011;40764;48.472;8.166;2023-11-21T05:31:58;6.95;;;3.25;;
54875;SDS011;40764;48.472;8.166;2023-11-21T05:37:59;4.18;;;2.35;;
54875;SDS011;40764;48.472;8.166;2023-11-21T05:43:59;3.88;;;1.70;;
54875;SDS011;40764;48.472;8.166;2023-11-21T05:50:01;6.15;;;3.60;;
54875;SDS011;40764;48.472;8.166;2023-11-21T05:56:01;9.55;;;2.60;;
54875;SDS011;40764;48.472;8.166;2023-11-21T06:02:01;7.17;;;1.83;;
54875;SDS011;40764;48.472;8.166;2023-11-21T06:08:02;4.97;;;4.37;;
54875;SDS011;40764;48.472;8.166;2023-11-21T06:14:02;5.20;;;3.40;;
54875;SDS011;40764;48.472;8.166;2023-11-21T06:20:03;14.97;;;4.37;;
54875;SDS011;40764;48.472;8.166;2023-11-21T06:26:09;12.07;;;6.70;;
54875;SDS011;40764;48.472;8.166;2023-11-21T06:32:09;17.73;;;7.13;;
54875;SDS011;40764;48.472;8.166;2023-11-21T06:38:10;12.83;;;3.43;;
54875;SDS011;40764;48.472;8.166;2023-11-21T06:44:10;4.37;;;1.80;;
54875;SDS011;40764;48.472;8.166;2023-11-21T06:50:11;7.15;;;4.20;;
54875;SDS011;40764;48.472;8.166;2023-11-21T06:56:17;3.93;;;2.50;;
54875;SDS011;40764;48.472;8.166;2023-11-21T07:02:18;5.13;;;3.25;;
54875;SDS011;40764;48.472;8.166;2023-11-21T07:08:18;14.13;;;3.37;;
54875;SDS011;40764;48.472;8.166;2023-11-21T07:14:19;15.45;;;6.55;;
54875;SDS011;40764;48.472;8.166;2023-11-21T07:20:19;10.67;;;5.43;;
54875;SDS011;40764;48.472;8.166;2023-11-21T07:26:20;18.55;;;6.22;;
54875;SDS011;40764;48.472;8.166;2023-11-21T07:32:20;38.53;;;13.07;;
54875;SDS011;40764;48.472;8.166;2023-11-21T07:38:20;12.18;;;6.55;;
54875;SDS011;40764;48.472;8.166;2023-11-21T07:44:21;27.15;;;12.95;;
54875;SDS011;40764;48.472;8.166;2023-11-21T07:50:21;39.37;;;16.63;;
54875;SDS011;40764;48.472;8.166;2023-11-21T07:56:22;36.17;;;14.23;;
54875;SDS011;40764;48.472;8.166;2023-11-21T08:02:23;100.65;;;33.78;;
54875;SDS011;40764;48.472;8.166;2023-11-21T08:08:23;29.50;;;10.85;;
54875;SDS011;40764;48.472;8.166;2023-11-21T08:14:24;31.83;;;13.90;;
54875;SDS011;40764;48.472;8.166;2023-11-21T08:20:25;31.70;;;12.63;;
54875;SDS011;40764;48.472;8.166;2023-11-21T08:26:25;48.83;;;18.80;;
54875;SDS011;40764;48.472;8.166;2023-11-21T08:32:26;16.50;;;9.02;;
54875;SDS011;40764;48.472;8.166;2023-11-21T08:38:26;9.40;;;4.38;;
54875;SDS011;40764;48.472;8.166;2023-11-21T08:44:26;8.57;;;4.53;;
54875;SDS011;40764;48.472;8.166;2023-11-21T08:50:27;6.97;;;3.93;;
54875;SDS011;40764;48.472;8.166;2023-11-21T08:56:27;10.18;;;3.25;;
54875;SDS011;40764;48.472;8.166;2023-11-21T09:02:27;5.70;;;3.28;;
54875;SDS011;40764;48.472;8.166;2023-11-21T09:08:28;2.83;;;2.57;;
54875;SDS011;40764;48.472;8.166;2023-11-21T09:14:29;2.58;;;2.13;;
54875;SDS011;40764;48.472;8.166;2023-11-21T09:20:29;3.97;;;1.90;;
54875;SDS011;40764;48.472;8.166;2023-11-21T09:26:29;3.05;;;1.88;;
54875;SDS011;40764;48.472;8.166;2023-11-21T09:32:30;4.05;;;2.22;;
54875;SDS011;40764;48.472;8.166;2023-11-21T09:38:30;4.13;;;1.53;;
54875;SDS011;40764;48.472;8.166;2023-11-21T09:44:43;2.47;;;1.73;;
54875;SDS011;40764;48.472;8.166;2023-11-21T09:51:04;5.20;;;2.33;;
54875;SDS011;40764;48.472;8.166;2023-11-21T09:57:04;6.27;;;2.50;;
54875;SDS011;40764;48.472;8.166;2023-11-21T10:03:05;2.33;;;1.57;;
54875;SDS011;40764;48.472;8.166;2023-11-21T10:09:10;4.05;;;1.25;;
54875;SDS011;40764;48.472;8.166;2023-11-21T10:15:11;14.00;;;5.90;;
54875;SDS011;40764;48.472;8.166;2023-11-21T10:21:16;2.60;;;2.05;;
54875;SDS011;40764;48.472;8.166;2023-11-21T10:27:17;1.53;;;1.40;;
54875;SDS011;40764;48.472;8.166;2023-11-21T10:33:17;2.65;;;2.00;;
54875;SDS011;40764;48.472;8.166;2023-11-21T10:39:18;10.13;;;2.40;;
54875;SDS011;40764;48.472;8.166;2023-11-21T10:51:20;2.35;;;1.70;;
54875;SDS011;40764;48.472;8.166;2023-11-21T10:57:21;3.88;;;1.38;;
54875;SDS011;40764;48.472;8.166;2023-11-21T11:03:23;2.00;;;1.85;;
54875;SDS011;40764;48.472;8.166;2023-11-21T11:09:24;3.40;;;1.77;;
54875;SDS011;40764;48.472;8.166;2023-11-21T11:15:25;1.60;;;1.40;;
54875;SDS011;40764;48.472;8.166;2023-11-21T11:27:56;2.65;;;2.45;;
54875;SDS011;40764;48.472;8.166;2023-11-21T11:40:46;3.25;;;2.00;;
54875;SDS011;40764;48.472;8.166;2023-11-21T11:46:46;1.45;;;1.35;;
54875;SDS011;40764;48.472;8.166;2023-11-21T11:52:47;3.73;;;2.13;;
54875;SDS011;40764;48.472;8.166;2023-11-21T11:58:49;2.70;;;1.85;;
54875;SDS011;40764;48.472;8.166;2023-11-21T12:10:57;3.85;;;3.15;;
54875;SDS011;40764;48.472;8.166;2023-11-21T12:16:57;3.63;;;2.37;;
54875;SDS011;40764;48.472;8.166;2023-11-21T12:23:00;6.25;;;3.25;;
54875;SDS011;40764;48.472;8.166;2023-11-21T12:29:00;26.02;;;13.13;;
54875;SDS011;40764;48.472;8.166;2023-11-21T12:35:03;4.28;;;2.22;;
54875;SDS011;40764;48.472;8.166;2023-11-21T12:41:06;3.60;;;2.17;;
54875;SDS011;40764;48.472;8.166;2023-11-21T12:47:10;2.88;;;1.90;;
54875;SDS011;40764;48.472;8.166;2023-11-21T12:53:14;3.60;;;2.63;;
54875;SDS011;40764;48.472;8.166;2023-11-21T13:05:28;5.28;;;2.55;;
54875;SDS011;40764;48.472;8.166;2023-11-21T13:11:33;40.92;;;31.23;;
54875;SDS011;40764;48.472;8.166;2023-11-21T13:17:34;2.55;;;2.13;;
54875;SDS011;40764;48.472;8.166;2023-11-21T13:23:35;10.55;;;2.40;;
54875;SDS011;40764;48.472;8.166;2023-11-21T13:29:38;2.42;;;2.00;;
54875;SDS011;40764;48.472;8.166;2023-11-21T13:35:38;6.40;;;2.38;;
54875;SDS011;40764;48.472;8.166;2023-11-21T13:41:42;2.22;;;2.03;;
54875;SDS011;40764;48.472;8.166;2023-11-21T13:47:43;1.93;;;1.33;;
54875;SDS011;40764;48.472;8.166;2023-11-21T13:53:45;3.10;;;2.20;;
54875;SDS011;40764;48.472;8.166;2023-11-21T13:59:49;3.00;;;2.25;;
54875;SDS011;40764;48.472;8.166;2023-11-21T14:11:51;20.00;;;7.28;;
54875;SDS011;40764;48.472;8.166;2023-11-21T14:17:53;3.72;;;3.30;;
54875;SDS011;40764;48.472;8.166;2023-11-21T14:23:54;8.27;;;3.83;;
54875;SDS011;40764;48.472;8.166;2023-11-21T14:29:55;7.23;;;3.80;;
54875;SDS011;40764;48.472;8.166;2023-11-21T14:35:57;6.95;;;4.22;;
54875;SDS011;40764;48.472;8.166;2023-11-21T14:41:57;6.57;;;3.53;;
54875;SDS011;40764;48.472;8.166;2023-11-21T14:47:59;4.22;;;3.03;;
54875;SDS011;40764;48.472;8.166;2023-11-21T14:54:06;5.15;;;3.70;;
54875;SDS011;40764;48.472;8.166;2023-11-21T15:00:06;7.57;;;4.75;;
54875;SDS011;40764;48.472;8.166;2023-11-21T15:06:27;6.68;;;4.43;;
54875;SDS011;40764;48.472;8.166;2023-11-21T15:12:29;11.20;;;5.18;;
54875;SDS011;40764;48.472;8.166;2023-11-21T15:18:33;23.75;;;12.10;;
54875;SDS011;40764;48.472;8.166;2023-11-21T15:24:35;41.03;;;21.58;;
54875;SDS011;40764;48.472;8.166;2023-11-21T15:30:35;11.68;;;6.65;;
54875;SDS011;40764;48.472;8.166;2023-11-21T15:36:36;7.50;;;5.80;;
54875;SDS011;40764;48.472;8.166;2023-11-21T15:42:37;23.50;;;7.77;;
54875;SDS011;40764;48.472;8.166;2023-11-21T15:48:37;11.27;;;7.13;;
54875;SDS011;40764;48.472;8.166;2023-11-21T15:54:40;13.02;;;7.68;;
54875;SDS011;40764;48.472;8.166;2023-11-21T16:00:40;17.87;;;10.20;;
54875;SDS011;40764;48.472;8.166;2023-11-21T16:06:42;14.63;;;8.53;;
54875;SDS011;40764;48.472;8.166;2023-11-21T16:12:47;14.50;;;9.68;;
54875;SDS011;40764;48.472;8.166;2023-11-21T16:18:47;27.05;;;16.25;;
54875;SDS011;40764;48.472;8.166;2023-11-21T16:24:47;18.30;;;11.18;;
54875;SDS011;40764;48.472;8.166;2023-11-21T16:30:48;28.00;;;13.27;;
54875;SDS011;40764;48.472;8.166;2023-11-21T16:36:50;38.42;;;22.05;;
54875;SDS011;40764;48.472;8.166;2023-11-21T16:42:51;26.20;;;13.90;;
54875;SDS011;40764;48.472;8.166;2023-11-21T16:48:51;29.00;;;13.65;;
54875;SDS011;40764;48.472;8.166;2023-11-21T16:54:51;30.42;;;15.90;;
54875;SDS011;40764;48.472;8.166;2023-11-21T17:00:51;45.95;;;17.40;;
54875;SDS011;40764;48.472;8.166;2023-11-21T17:06:53;29.95;;;12.88;;
54875;SDS011;40764;48.472;8.166;2023-11-21T17:12:53;51.65;;;25.50;;
54875;SDS011;40764;48.472;8.166;2023-11-21T17:18:53;47.88;;;20.65;;
54875;SDS011;40764;48.472;8.166;2023-11-21T17:24:53;34.08;;;15.10;;
54875;SDS011;40764;48.472;8.166;2023-11-21T17:30:54;27.23;;;13.38;;
54875;SDS011;40764;48.472;8.166;2023-11-21T17:36:54;25.23;;;11.93;;
54875;SDS011;40764;48.472;8.166;2023-11-21T17:42:55;36.60;;;18.87;;
54875;SDS011;40764;48.472;8.166;2023-11-21T17:48:55;20.92;;;12.55;;
54875;SDS011;40764;48.472;8.166;2023-11-21T17:54:56;29.17;;;15.97;;
54875;SDS011;40764;48.472;8.166;2023-11-21T18:00:57;32.60;;;19.23;;
54875;SDS011;40764;48.472;8.166;2023-11-21T18:06:57;31.63;;;17.15;;
54875;SDS011;40764;48.472;8.166;2023-11-21T18:12:58;165.00;;;51.40;;
54875;SDS011;40764;48.472;8.166;2023-11-21T18:18:58;41.13;;;20.60;;
54875;SDS011;40764;48.472;8.166;2023-11-21T18:24:59;35.97;;;19.40;;
54875;SDS011;40764;48.472;8.166;2023-11-21T18:30:59;84.20;;;38.97;;
54875;SDS011;40764;48.472;8.166;2023-11-21T18:37:00;44.25;;;21.48;;
54875;SDS011;40764;48.472;8.166;2023-11-21T18:43:00;52.17;;;24.10;;
54875;SDS011;40764;48.472;8.166;2023-11-21T18:49:01;37.47;;;20.70;;
54875;SDS011;40764;48.472;8.166;2023-11-21T18:55:02;43.50;;;22.95;;
54875;SDS011;40764;48.472;8.166;2023-11-21T19:01:03;47.90;;;22.73;;
54875;SDS011;40764;48.472;8.166;2023-11-21T19:07:03;14.85;;;10.18;;
54875;SDS011;40764;48.472;8.166;2023-11-21T19:13:05;13.27;;;8.38;;
54875;SDS011;40764;48.472;8.166;2023-11-21T19:19:06;25.90;;;14.18;;
54875;SDS011;40764;48.472;8.166;2023-11-21T19:25:07;41.77;;;19.97;;
54875;SDS011;40764;48.472;8.166;2023-11-21T19:31:18;33.38;;;17.10;;
54875;SDS011;40764;48.472;8.166;2023-11-21T19:37:19;45.95;;;20.33;;
54875;SDS011;40764;48.472;8.166;2023-11-21T19:43:19;22.88;;;13.07;;
54875;SDS011;40764;48.472;8.166;2023-11-21T19:49:20;10.50;;;6.13;;
54875;SDS011;40764;48.472;8.166;2023-11-21T19:55:20;13.77;;;7.85;;
54875;SDS011;40764;48.472;8.166;2023-11-21T20:01:21;9.47;;;5.20;;
54875;SDS011;40764;48.472;8.166;2023-11-21T20:07:21;8.75;;;4.30;;
54875;SDS011;40764;48.472;8.166;2023-11-21T20:13:23;8.55;;;3.63;;
54875;SDS011;40764;48.472;8.166;2023-11-21T20:19:23;6.05;;;4.03;;
54875;SDS011;40764;48.472;8.166;2023-11-21T20:25:26;17.40;;;8.37;;
54875;SDS011;40764;48.472;8.166;2023-11-21T20:31:27;5.55;;;3.42;;
54875;SDS011;40764;48.472;8.166;2023-11-21T20:37:28;9.02;;;5.47;;
54875;SDS011;40764;48.472;8.166;2023-11-21T20:43:28;10.23;;;5.63;;
54875;SDS011;40764;48.472;8.166;2023-11-21T20:49:28;29.30;;;10.73;;
54875;SDS011;40764;48.472;8.166;2023-11-21T20:55:28;14.75;;;5.95;;
54875;SDS011;40764;48.472;8.166;2023-11-21T21:01:29;6.15;;;4.43;;
54875;SDS011;40764;48.472;8.166;2023-11-21T21:07:29;10.57;;;3.37;;
54875;SDS011;40764;48.472;8.166;2023-11-21T21:13:30;14.37;;;6.50;;
54875;SDS011;40764;48.472;8.166;2023-11-21T21:19:32;23.00;;;11.90;;
54875;SDS011;40764;48.472;8.166;2023-11-21T21:25:32;56.13;;;23.83;;
54875;SDS011;40764;48.472;8.166;2023-11-21T21:31:33;13.32;;;6.80;;
54875;SDS011;40764;48.472;8.166;2023-11-21T21:37:33;7.23;;;4.10;;
54875;SDS011;40764;48.472;8.166;2023-11-21T21:43:34;12.55;;;5.57;;
54875;SDS011;40764;48.472;8.166;2023-11-21T21:49:34;11.52;;;7.03;;
54875;SDS011;40764;48.472;8.166;2023-11-21T21:55:34;37.15;;;16.67;;
54875;SDS011;40764;48.472;8.166;2023-11-21T22:01:34;29.25;;;10.52;;
54875;SDS011;40764;48.472;8.166;2023-11-21T22:07:37;15.90;;;8.63;;
54875;SDS011;40764;48.472;8.166;2023-11-21T22:13:39;23.15;;;11.23;;
54875;SDS011;40764;48.472;8.166;2023-11-21T22:19:39;28.08;;;11.27;;
54875;SDS011;40764;48.472;8.166;2023-11-21T22:25:41;18.65;;;6.55;;
54875;SDS011;40764;48.472;8.166;2023-11-21T22:31:41;124.82;;;35.10;;
54875;SDS011;40764;48.472;8.166;2023-11-21T22:37:42;25.90;;;9.73;;
54875;SDS011;40764;48.472;8.166;2023-11-21T22:43:43;23.10;;;10.20;;
54875;SDS011;40764;48.472;8.166;2023-11-21T22:49:44;18.40;;;8.50;;
54875;SDS011;40764;48.472;8.166;2023-11-21T22:55:44;23.27;;;9.23;;
54875;SDS011;40764;48.472;8.166;2023-11-21T23:01:48;22.25;;;7.72;;
54875;SDS011;40764;48.472;8.166;2023-11-21T23:07:49;19.08;;;7.20;;
54875;SDS011;40764;48.472;8.166;2023-11-21T23:13:50;24.47;;;9.67;;
54875;SDS011;40764;48.472;8.166;2023-11-21T23:19:50;9.60;;;6.10;;
54875;SDS011;40764;48.472;8.166;2023-11-21T23:25:51;20.20;;;6.93;;
54875;SDS011;40764;48.472;8.166;2023-11-21T23:31:51;18.83;;;7.10;;
54875;SDS011;40764;48.472;8.166;2023-11-21T23:37:51;24.10;;;8.02;;
54875;SDS011;40764;48.472;8.166;2023-11-21T23:43:52;12.23;;;5.55;;
54875;SDS011;40764;48.472;8.166;2023-11-21T23:49:52;13.77;;;6.32;;
54875;SDS011;40764;48.472;8.166;2023-11-21T23:55:52;10.82;;;5.40;;
